sensor_id;sensor_type;location;lat;lon;timestamp;P1;durP1;ratioP1;P2;durP2;ratioP2
61505;SDS011;47366;51.916;4.574;2023-05-02T05:45:44;4.80;;;0.57;;
61505;SDS011;47366;51.916;4.574;2023-05-02T05:48:09;0.50;;;0.38;;
61505;SDS011;47366;51.916;4.574;2023-05-02T05:50:34;6.88;;;0.60;;
61505;SDS011;47366;51.916;4.574;2023-05-02T05:53:00;1.20;;;0.60;;
61505;SDS011;47366;51.916;4.574;2023-05-02T05:55:26;4.53;;;0.80;;
61505;SDS011;47366;51.916;4.574;2023-05-02T05:57:51;1.23;;;0.60;;
61505;SDS011;47366;51.916;4.574;2023-05-02T06:00:17;2.88;;;0.65;;
61505;SDS011;47366;51.916;4.574;2023-05-02T06:02:42;1.55;;;0.55;;
61505;SDS011;47366;51.916;4.574;2023-05-02T06:05:08;4.85;;;0.52;;
61505;SDS011;47366;51.916;4.574;2023-05-02T06:07:33;3.95;;;0.80;;
61505;SDS011;47366;51.916;4.574;2023-05-02T06:09:59;1.45;;;0.88;;
61505;SDS011;47366;51.916;4.574;2023-05-02T06:12:24;0.93;;;0.40;;
61505;SDS011;47366;51.916;4.574;2023-05-02T06:14:50;1.08;;;0.47;;
61505;SDS011;47366;51.916;4.574;2023-05-02T06:17:15;1.35;;;0.45;;
61505;SDS011;47366;51.916;4.574;2023-05-02T06:19:41;0.77;;;0.50;;
61505;SDS011;47366;51.916;4.574;2023-05-02T06:22:06;1.60;;;0.85;;
61505;SDS011;47366;51.916;4.574;2023-05-02T06:24:31;4.35;;;0.70;;
61505;SDS011;47366;51.916;4.574;2023-05-02T06:26:57;1.98;;;0.80;;
61505;SDS011;47366;51.916;4.574;2023-05-02T06:29:22;3.38;;;1.13;;
61505;SDS011;47366;51.916;4.574;2023-05-02T06:31:48;0.40;;;0.40;;
61505;SDS011;47366;51.916;4.574;2023-05-02T06:34:15;1.85;;;0.77;;
61505;SDS011;47366;51.916;4.574;2023-05-02T06:36:40;2.00;;;0.68;;
61505;SDS011;47366;51.916;4.574;2023-05-02T06:39:05;2.78;;;0.45;;
61505;SDS011;47366;51.916;4.574;2023-05-02T06:41:31;2.53;;;0.63;;
61505;SDS011;47366;51.916;4.574;2023-05-02T06:43:56;0.73;;;0.43;;
61505;SDS011;47366;51.916;4.574;2023-05-02T06:46:21;1.75;;;0.88;;
61505;SDS011;47366;51.916;4.574;2023-05-02T06:48:47;0.88;;;0.60;;
61505;SDS011;47366;51.916;4.574;2023-05-02T06:51:13;3.35;;;0.65;;
61505;SDS011;47366;51.916;4.574;2023-05-02T06:53:39;1.65;;;0.40;;
61505;SDS011;47366;51.916;4.574;2023-05-02T06:56:04;3.63;;;0.50;;
61505;SDS011;47366;51.916;4.574;2023-05-02T06:58:30;4.28;;;0.75;;
61505;SDS011;47366;51.916;4.574;2023-05-02T07:00:55;4.07;;;0.63;;
61505;SDS011;47366;51.916;4.574;2023-05-02T07:03:21;2.88;;;1.02;;
61505;SDS011;47366;51.916;4.574;2023-05-02T07:05:46;1.27;;;0.43;;
61505;SDS011;47366;51.916;4.574;2023-05-02T07:08:11;2.40;;;0.88;;
61505;SDS011;47366;51.916;4.574;2023-05-02T07:10:37;5.35;;;0.70;;
61505;SDS011;47366;51.916;4.574;2023-05-02T07:13:02;2.38;;;0.57;;
61505;SDS011;47366;51.916;4.574;2023-05-02T07:15:27;2.70;;;0.80;;
61505;SDS011;47366;51.916;4.574;2023-05-02T07:17:53;1.05;;;0.60;;
61505;SDS011;47366;51.916;4.574;2023-05-02T07:20:18;2.92;;;0.70;;
61505;SDS011;47366;51.916;4.574;2023-05-02T07:22:44;8.23;;;0.70;;
61505;SDS011;47366;51.916;4.574;2023-05-02T07:25:09;5.05;;;0.70;;
61505;SDS011;47366;51.916;4.574;2023-05-02T07:27:35;0.60;;;0.50;;
61505;SDS011;47366;51.916;4.574;2023-05-02T07:30:00;1.98;;;0.52;;
61505;SDS011;47366;51.916;4.574;2023-05-02T07:32:26;1.85;;;0.50;;
61505;SDS011;47366;51.916;4.574;2023-05-02T07:34:51;0.65;;;0.47;;
61505;SDS011;47366;51.916;4.574;2023-05-02T07:37:21;0.50;;;0.30;;
61505;SDS011;47366;51.916;4.574;2023-05-02T07:39:47;0.82;;;0.60;;
61505;SDS011;47366;51.916;4.574;2023-05-02T07:42:12;1.10;;;0.47;;
61505;SDS011;47366;51.916;4.574;2023-05-02T07:44:37;3.92;;;0.60;;
61505;SDS011;47366;51.916;4.574;2023-05-02T07:47:03;1.65;;;0.55;;
61505;SDS011;47366;51.916;4.574;2023-05-02T07:49:28;0.77;;;0.50;;
61505;SDS011;47366;51.916;4.574;2023-05-02T07:51:55;2.20;;;0.60;;
61505;SDS011;47366;51.916;4.574;2023-05-02T07:54:20;6.50;;;0.65;;
61505;SDS011;47366;51.916;4.574;2023-05-02T07:56:46;0.73;;;0.52;;
61505;SDS011;47366;51.916;4.574;2023-05-02T07:59:12;4.97;;;0.70;;
61505;SDS011;47366;51.916;4.574;2023-05-02T08:01:39;1.60;;;0.75;;
61505;SDS011;47366;51.916;4.574;2023-05-02T08:04:08;3.85;;;1.23;;
61505;SDS011;47366;51.916;4.574;2023-05-02T08:06:35;3.55;;;0.70;;
61505;SDS011;47366;51.916;4.574;2023-05-02T08:09:00;3.75;;;0.70;;
61505;SDS011;47366;51.916;4.574;2023-05-02T08:11:26;1.38;;;0.52;;
61505;SDS011;47366;51.916;4.574;2023-05-02T08:13:51;4.85;;;0.75;;
61505;SDS011;47366;51.916;4.574;2023-05-02T08:16:17;2.25;;;0.57;;
61505;SDS011;47366;51.916;4.574;2023-05-02T08:18:43;3.30;;;0.73;;
61505;SDS011;47366;51.916;4.574;2023-05-02T08:21:08;2.40;;;0.98;;
61505;SDS011;47366;51.916;4.574;2023-05-02T08:23:34;1.10;;;0.82;;
61505;SDS011;47366;51.916;4.574;2023-05-02T08:26:01;0.45;;;0.32;;
61505;SDS011;47366;51.916;4.574;2023-05-02T08:28:26;2.38;;;0.63;;
61505;SDS011;47366;51.916;4.574;2023-05-02T08:30:52;3.33;;;0.65;;
61505;SDS011;47366;51.916;4.574;2023-05-02T08:33:17;2.17;;;0.60;;
61505;SDS011;47366;51.916;4.574;2023-05-02T08:35:42;3.03;;;0.57;;
61505;SDS011;47366;51.916;4.574;2023-05-02T08:38:08;0.85;;;0.63;;
61505;SDS011;47366;51.916;4.574;2023-05-02T08:40:34;1.67;;;0.60;;
61505;SDS011;47366;51.916;4.574;2023-05-02T08:43:00;4.30;;;0.68;;
61505;SDS011;47366;51.916;4.574;2023-05-02T08:45:26;1.58;;;0.60;;
61505;SDS011;47366;51.916;4.574;2023-05-02T08:47:56;1.08;;;0.55;;
61505;SDS011;47366;51.916;4.574;2023-05-02T08:50:23;3.70;;;0.57;;
61505;SDS011;47366;51.916;4.574;2023-05-02T08:52:49;0.77;;;0.57;;
61505;SDS011;47366;51.916;4.574;2023-05-02T08:55:16;1.63;;;0.82;;
61505;SDS011;47366;51.916;4.574;2023-05-02T08:57:42;0.73;;;0.50;;
61505;SDS011;47366;51.916;4.574;2023-05-02T09:00:08;2.05;;;0.60;;
61505;SDS011;47366;51.916;4.574;2023-05-02T09:02:38;0.55;;;0.40;;
61505;SDS011;47366;51.916;4.574;2023-05-02T09:05:23;2.03;;;0.55;;
61505;SDS011;47366;51.916;4.574;2023-05-02T09:07:49;0.57;;;0.40;;
61505;SDS011;47366;51.916;4.574;2023-05-02T09:10:15;1.02;;;0.60;;
61505;SDS011;47366;51.916;4.574;2023-05-02T09:12:40;2.47;;;0.60;;
61505;SDS011;47366;51.916;4.574;2023-05-02T09:15:10;0.68;;;0.52;;
61505;SDS011;47366;51.916;4.574;2023-05-02T09:17:37;3.20;;;0.68;;
61505;SDS011;47366;51.916;4.574;2023-05-02T09:20:04;2.95;;;0.45;;
61505;SDS011;47366;51.916;4.574;2023-05-02T09:22:30;0.30;;;0.30;;
61505;SDS011;47366;51.916;4.574;2023-05-02T09:24:56;0.95;;;0.60;;
61505;SDS011;47366;51.916;4.574;2023-05-02T09:27:21;1.35;;;0.65;;
61505;SDS011;47366;51.916;4.574;2023-05-02T09:29:46;0.90;;;0.57;;
61505;SDS011;47366;51.916;4.574;2023-05-02T09:32:12;2.10;;;0.85;;
61505;SDS011;47366;51.916;4.574;2023-05-02T09:34:37;1.13;;;0.80;;
61505;SDS011;47366;51.916;4.574;2023-05-02T09:37:03;0.60;;;0.43;;
61505;SDS011;47366;51.916;4.574;2023-05-02T09:39:29;2.17;;;0.80;;
61505;SDS011;47366;51.916;4.574;2023-05-02T09:41:55;2.22;;;0.98;;
61505;SDS011;47366;51.916;4.574;2023-05-02T09:44:21;1.02;;;0.68;;
61505;SDS011;47366;51.916;4.574;2023-05-02T09:46:52;0.65;;;0.60;;
61505;SDS011;47366;51.916;4.574;2023-05-02T09:49:24;2.05;;;0.50;;
61505;SDS011;47366;51.916;4.574;2023-05-02T09:52:14;1.30;;;0.73;;
61505;SDS011;47366;51.916;4.574;2023-05-02T09:54:40;2.17;;;0.47;;
61505;SDS011;47366;51.916;4.574;2023-05-02T09:57:06;2.55;;;0.85;;
61505;SDS011;47366;51.916;4.574;2023-05-02T09:59:31;2.75;;;0.52;;
61505;SDS011;47366;51.916;4.574;2023-05-02T10:02:06;1.38;;;0.47;;
61505;SDS011;47366;51.916;4.574;2023-05-02T10:04:33;1.15;;;0.47;;
61505;SDS011;47366;51.916;4.574;2023-05-02T10:07:00;2.55;;;0.80;;
61505;SDS011;47366;51.916;4.574;2023-05-02T10:09:26;2.30;;;0.50;;
61505;SDS011;47366;51.916;4.574;2023-05-02T10:11:54;0.52;;;0.32;;
61505;SDS011;47366;51.916;4.574;2023-05-02T10:14:20;1.27;;;0.45;;
61505;SDS011;47366;51.916;4.574;2023-05-02T10:17:00;0.93;;;0.52;;
61505;SDS011;47366;51.916;4.574;2023-05-02T10:19:40;0.50;;;0.43;;
61505;SDS011;47366;51.916;4.574;2023-05-02T10:22:13;1.65;;;0.77;;
61505;SDS011;47366;51.916;4.574;2023-05-02T10:24:39;2.45;;;1.10;;
61505;SDS011;47366;51.916;4.574;2023-05-02T10:27:05;4.15;;;0.75;;
61505;SDS011;47366;51.916;4.574;2023-05-02T10:29:31;2.30;;;0.57;;
61505;SDS011;47366;51.916;4.574;2023-05-02T10:31:58;1.83;;;0.63;;
61505;SDS011;47366;51.916;4.574;2023-05-02T10:34:25;2.15;;;0.68;;
61505;SDS011;47366;51.916;4.574;2023-05-02T10:36:51;2.13;;;0.65;;
61505;SDS011;47366;51.916;4.574;2023-05-02T10:39:18;3.75;;;0.88;;
61505;SDS011;47366;51.916;4.574;2023-05-02T10:41:48;0.85;;;0.63;;
61505;SDS011;47366;51.916;4.574;2023-05-02T10:44:16;2.63;;;0.80;;
61505;SDS011;47366;51.916;4.574;2023-05-02T10:46:43;3.75;;;0.80;;
61505;SDS011;47366;51.916;4.574;2023-05-02T10:49:09;1.98;;;0.70;;
61505;SDS011;47366;51.916;4.574;2023-05-02T10:51:37;2.80;;;0.60;;
61505;SDS011;47366;51.916;4.574;2023-05-02T10:59:30;2.60;;;1.00;;
61505;SDS011;47366;51.916;4.574;2023-05-02T11:05:01;1.38;;;0.75;;
61505;SDS011;47366;51.916;4.574;2023-05-02T11:07:28;2.05;;;0.88;;
61505;SDS011;47366;51.916;4.574;2023-05-02T11:15:09;2.30;;;0.95;;
61505;SDS011;47366;51.916;4.574;2023-05-02T11:20:22;1.40;;;0.90;;
61505;SDS011;47366;51.916;4.574;2023-05-02T11:22:48;3.70;;;1.05;;
61505;SDS011;47366;51.916;4.574;2023-05-02T11:25:33;3.83;;;1.20;;
61505;SDS011;47366;51.916;4.574;2023-05-02T11:28:01;2.65;;;1.00;;
61505;SDS011;47366;51.916;4.574;2023-05-02T11:30:43;1.63;;;0.90;;
61505;SDS011;47366;51.916;4.574;2023-05-02T11:33:10;4.22;;;0.85;;
61505;SDS011;47366;51.916;4.574;2023-05-02T11:35:36;1.50;;;0.68;;
61505;SDS011;47366;51.916;4.574;2023-05-02T11:38:13;1.67;;;1.15;;
61505;SDS011;47366;51.916;4.574;2023-05-02T11:40:39;2.10;;;1.23;;
61505;SDS011;47366;51.916;4.574;2023-05-02T11:43:15;3.60;;;1.23;;
61505;SDS011;47366;51.916;4.574;2023-05-02T11:45:41;1.60;;;0.80;;
61505;SDS011;47366;51.916;4.574;2023-05-02T11:48:07;2.55;;;1.02;;
61505;SDS011;47366;51.916;4.574;2023-05-02T11:50:45;3.17;;;0.98;;
61505;SDS011;47366;51.916;4.574;2023-05-02T11:53:14;1.48;;;0.77;;
61505;SDS011;47366;51.916;4.574;2023-05-02T11:55:44;1.33;;;0.88;;
61505;SDS011;47366;51.916;4.574;2023-05-02T11:58:29;2.17;;;1.20;;
61505;SDS011;47366;51.916;4.574;2023-05-02T12:00:58;1.23;;;0.95;;
61505;SDS011;47366;51.916;4.574;2023-05-02T12:03:38;1.45;;;0.88;;
61505;SDS011;47366;51.916;4.574;2023-05-02T12:06:10;9.70;;;1.33;;
61505;SDS011;47366;51.916;4.574;2023-05-02T12:08:37;2.03;;;1.20;;
61505;SDS011;47366;51.916;4.574;2023-05-02T12:11:03;1.52;;;0.77;;
61505;SDS011;47366;51.916;4.574;2023-05-02T12:13:29;1.65;;;0.90;;
61505;SDS011;47366;51.916;4.574;2023-05-02T12:15:54;6.20;;;1.27;;
61505;SDS011;47366;51.916;4.574;2023-05-02T12:18:21;5.05;;;1.95;;
61505;SDS011;47366;51.916;4.574;2023-05-02T12:20:48;1.10;;;0.80;;
61505;SDS011;47366;51.916;4.574;2023-05-02T12:23:15;2.45;;;1.20;;
61505;SDS011;47366;51.916;4.574;2023-05-02T12:25:41;2.90;;;1.05;;
61505;SDS011;47366;51.916;4.574;2023-05-02T12:28:07;3.53;;;1.27;;
61505;SDS011;47366;51.916;4.574;2023-05-02T12:30:34;4.68;;;1.15;;
61505;SDS011;47366;51.916;4.574;2023-05-02T12:33:02;2.83;;;1.10;;
61505;SDS011;47366;51.916;4.574;2023-05-02T12:35:29;2.30;;;1.20;;
61505;SDS011;47366;51.916;4.574;2023-05-02T12:38:06;2.17;;;1.05;;
61505;SDS011;47366;51.916;4.574;2023-05-02T12:40:36;1.37;;;1.00;;
61505;SDS011;47366;51.916;4.574;2023-05-02T12:43:03;2.70;;;0.90;;
61505;SDS011;47366;51.916;4.574;2023-05-02T12:45:30;4.10;;;1.20;;
61505;SDS011;47366;51.916;4.574;2023-05-02T12:48:00;5.07;;;1.63;;
61505;SDS011;47366;51.916;4.574;2023-05-02T12:50:38;4.72;;;1.50;;
61505;SDS011;47366;51.916;4.574;2023-05-02T12:53:04;5.38;;;0.93;;
61505;SDS011;47366;51.916;4.574;2023-05-02T12:55:30;1.33;;;0.63;;
61505;SDS011;47366;51.916;4.574;2023-05-02T12:57:59;5.07;;;1.50;;
61505;SDS011;47366;51.916;4.574;2023-05-02T13:00:25;3.15;;;1.15;;
61505;SDS011;47366;51.916;4.574;2023-05-02T13:02:50;6.05;;;1.00;;
61505;SDS011;47366;51.916;4.574;2023-05-02T13:05:16;3.47;;;0.90;;
61505;SDS011;47366;51.916;4.574;2023-05-02T13:07:42;5.88;;;1.40;;
61505;SDS011;47366;51.916;4.574;2023-05-02T13:10:08;1.90;;;1.15;;
61505;SDS011;47366;51.916;4.574;2023-05-02T13:12:35;3.40;;;1.20;;
61505;SDS011;47366;51.916;4.574;2023-05-02T13:15:05;2.13;;;1.02;;
61505;SDS011;47366;51.916;4.574;2023-05-02T13:17:32;2.03;;;1.00;;
61505;SDS011;47366;51.916;4.574;2023-05-02T13:19:59;1.10;;;0.70;;
61505;SDS011;47366;51.916;4.574;2023-05-02T13:22:25;4.10;;;1.02;;
61505;SDS011;47366;51.916;4.574;2023-05-02T13:24:51;4.25;;;1.13;;
61505;SDS011;47366;51.916;4.574;2023-05-02T13:27:17;2.92;;;1.10;;
61505;SDS011;47366;51.916;4.574;2023-05-02T13:29:45;3.25;;;0.77;;
61505;SDS011;47366;51.916;4.574;2023-05-02T13:32:10;1.75;;;0.90;;
61505;SDS011;47366;51.916;4.574;2023-05-02T13:34:36;1.05;;;0.77;;
61505;SDS011;47366;51.916;4.574;2023-05-02T13:37:01;4.20;;;1.05;;
61505;SDS011;47366;51.916;4.574;2023-05-02T13:39:27;1.58;;;0.85;;
61505;SDS011;47366;51.916;4.574;2023-05-02T13:41:52;2.92;;;0.70;;
61505;SDS011;47366;51.916;4.574;2023-05-02T13:44:17;4.53;;;1.00;;
61505;SDS011;47366;51.916;4.574;2023-05-02T13:46:43;1.63;;;0.93;;
61505;SDS011;47366;51.916;4.574;2023-05-02T13:49:08;3.10;;;1.15;;
61505;SDS011;47366;51.916;4.574;2023-05-02T13:51:33;1.67;;;0.90;;
61505;SDS011;47366;51.916;4.574;2023-05-02T13:53:59;5.05;;;1.02;;
61505;SDS011;47366;51.916;4.574;2023-05-02T13:56:25;2.58;;;1.10;;
61505;SDS011;47366;51.916;4.574;2023-05-02T13:58:50;1.63;;;0.90;;
61505;SDS011;47366;51.916;4.574;2023-05-02T14:01:16;2.05;;;0.70;;
61505;SDS011;47366;51.916;4.574;2023-05-02T14:03:41;2.35;;;0.80;;
61505;SDS011;47366;51.916;4.574;2023-05-02T14:06:07;2.63;;;0.73;;
61505;SDS011;47366;51.916;4.574;2023-05-02T14:08:32;1.33;;;0.70;;
61505;SDS011;47366;51.916;4.574;2023-05-02T14:10:57;1.73;;;0.80;;
61505;SDS011;47366;51.916;4.574;2023-05-02T14:13:22;2.05;;;0.80;;
61505;SDS011;47366;51.916;4.574;2023-05-02T14:15:48;1.98;;;1.02;;
61505;SDS011;47366;51.916;4.574;2023-05-02T14:18:14;2.30;;;0.90;;
61505;SDS011;47366;51.916;4.574;2023-05-02T14:20:40;1.55;;;0.93;;
61505;SDS011;47366;51.916;4.574;2023-05-02T14:23:06;1.35;;;0.73;;
61505;SDS011;47366;51.916;4.574;2023-05-02T14:25:31;1.75;;;1.00;;
61505;SDS011;47366;51.916;4.574;2023-05-02T14:27:57;3.10;;;0.85;;
61505;SDS011;47366;51.916;4.574;2023-05-02T14:30:22;3.65;;;0.80;;
61505;SDS011;47366;51.916;4.574;2023-05-02T14:32:47;2.60;;;0.63;;
61505;SDS011;47366;51.916;4.574;2023-05-02T14:35:12;4.07;;;1.00;;
61505;SDS011;47366;51.916;4.574;2023-05-02T14:37:38;1.70;;;0.90;;
61505;SDS011;47366;51.916;4.574;2023-05-02T14:40:03;4.72;;;0.95;;
61505;SDS011;47366;51.916;4.574;2023-05-02T14:42:29;1.65;;;0.95;;
61505;SDS011;47366;51.916;4.574;2023-05-02T14:44:55;2.72;;;0.80;;
61505;SDS011;47366;51.916;4.574;2023-05-02T14:47:21;4.68;;;1.27;;
61505;SDS011;47366;51.916;4.574;2023-05-02T14:49:46;5.93;;;1.13;;
61505;SDS011;47366;51.916;4.574;2023-05-02T14:52:12;2.38;;;0.82;;
61505;SDS011;47366;51.916;4.574;2023-05-02T14:54:37;4.15;;;1.30;;
61505;SDS011;47366;51.916;4.574;2023-05-02T14:57:02;2.67;;;1.17;;
61505;SDS011;47366;51.916;4.574;2023-05-02T14:59:28;1.60;;;0.98;;
61505;SDS011;47366;51.916;4.574;2023-05-02T15:01:54;3.03;;;1.02;;
61505;SDS011;47366;51.916;4.574;2023-05-02T15:04:19;4.25;;;1.08;;
61505;SDS011;47366;51.916;4.574;2023-05-02T15:06:45;3.22;;;1.00;;
61505;SDS011;47366;51.916;4.574;2023-05-02T15:09:11;3.38;;;1.45;;
61505;SDS011;47366;51.916;4.574;2023-05-02T15:11:38;2.00;;;0.93;;
61505;SDS011;47366;51.916;4.574;2023-05-02T15:14:03;2.92;;;1.33;;
61505;SDS011;47366;51.916;4.574;2023-05-02T15:16:28;4.90;;;1.13;;
61505;SDS011;47366;51.916;4.574;2023-05-02T15:18:54;4.57;;;1.27;;
61505;SDS011;47366;51.916;4.574;2023-05-02T15:21:19;2.65;;;1.02;;
61505;SDS011;47366;51.916;4.574;2023-05-02T15:23:45;4.10;;;1.48;;
61505;SDS011;47366;51.916;4.574;2023-05-02T15:26:11;1.42;;;0.98;;
61505;SDS011;47366;51.916;4.574;2023-05-02T15:28:37;3.88;;;1.30;;
61505;SDS011;47366;51.916;4.574;2023-05-02T15:31:02;2.17;;;1.23;;
61505;SDS011;47366;51.916;4.574;2023-05-02T15:33:28;2.08;;;1.20;;
61505;SDS011;47366;51.916;4.574;2023-05-02T15:35:55;3.55;;;1.40;;
61505;SDS011;47366;51.916;4.574;2023-05-02T15:38:24;1.92;;;1.20;;
61505;SDS011;47366;51.916;4.574;2023-05-02T15:40:57;2.85;;;1.13;;
61505;SDS011;47366;51.916;4.574;2023-05-02T15:43:23;2.40;;;1.10;;
61505;SDS011;47366;51.916;4.574;2023-05-02T15:45:52;3.15;;;1.33;;
61505;SDS011;47366;51.916;4.574;2023-05-02T15:48:19;2.85;;;1.20;;
61505;SDS011;47366;51.916;4.574;2023-05-02T15:50:45;2.53;;;1.25;;
61505;SDS011;47366;51.916;4.574;2023-05-02T15:53:12;2.78;;;1.50;;
61505;SDS011;47366;51.916;4.574;2023-05-02T15:55:41;4.00;;;1.50;;
61505;SDS011;47366;51.916;4.574;2023-05-02T15:58:16;4.75;;;0.98;;
61505;SDS011;47366;51.916;4.574;2023-05-02T16:00:42;2.63;;;1.23;;
61505;SDS011;47366;51.916;4.574;2023-05-02T16:03:08;1.92;;;0.95;;
61505;SDS011;47366;51.916;4.574;2023-05-02T16:05:34;1.73;;;1.05;;
61505;SDS011;47366;51.916;4.574;2023-05-02T16:08:00;1.65;;;1.08;;
61505;SDS011;47366;51.916;4.574;2023-05-02T16:10:26;2.35;;;1.25;;
61505;SDS011;47366;51.916;4.574;2023-05-02T16:12:52;4.90;;;1.27;;
61505;SDS011;47366;51.916;4.574;2023-05-02T16:15:17;2.70;;;1.38;;
61505;SDS011;47366;51.916;4.574;2023-05-02T16:17:43;2.88;;;1.13;;
61505;SDS011;47366;51.916;4.574;2023-05-02T16:20:08;4.10;;;1.33;;
61505;SDS011;47366;51.916;4.574;2023-05-02T16:22:34;2.35;;;1.00;;
61505;SDS011;47366;51.916;4.574;2023-05-02T16:25:02;2.55;;;1.40;;
61505;SDS011;47366;51.916;4.574;2023-05-02T16:27:28;3.08;;;1.15;;
61505;SDS011;47366;51.916;4.574;2023-05-02T16:29:55;7.43;;;0.93;;
61505;SDS011;47366;51.916;4.574;2023-05-02T16:32:22;1.58;;;0.85;;
61505;SDS011;47366;51.916;4.574;2023-05-02T16:34:49;2.67;;;1.17;;
61505;SDS011;47366;51.916;4.574;2023-05-02T16:37:17;1.85;;;0.80;;
61505;SDS011;47366;51.916;4.574;2023-05-02T16:39:42;2.03;;;0.88;;
61505;SDS011;47366;51.916;4.574;2023-05-02T16:42:10;1.80;;;1.08;;
61505;SDS011;47366;51.916;4.574;2023-05-02T16:44:36;2.08;;;1.05;;
61505;SDS011;47366;51.916;4.574;2023-05-02T16:47:02;4.25;;;1.40;;
61505;SDS011;47366;51.916;4.574;2023-05-02T16:49:28;2.17;;;1.00;;
61505;SDS011;47366;51.916;4.574;2023-05-02T16:51:53;4.53;;;1.38;;
61505;SDS011;47366;51.916;4.574;2023-05-02T16:54:20;2.03;;;0.82;;
61505;SDS011;47366;51.916;4.574;2023-05-02T16:56:45;2.67;;;1.17;;
61505;SDS011;47366;51.916;4.574;2023-05-02T16:59:11;2.38;;;1.08;;
61505;SDS011;47366;51.916;4.574;2023-05-02T17:01:36;2.25;;;0.80;;
61505;SDS011;47366;51.916;4.574;2023-05-02T17:04:02;1.00;;;0.50;;
61505;SDS011;47366;51.916;4.574;2023-05-02T17:06:28;3.88;;;0.68;;
61505;SDS011;47366;51.916;4.574;2023-05-02T17:08:55;1.90;;;1.00;;
61505;SDS011;47366;51.916;4.574;2023-05-02T17:11:21;0.77;;;0.60;;
61505;SDS011;47366;51.916;4.574;2023-05-02T17:13:48;1.60;;;0.70;;
61505;SDS011;47366;51.916;4.574;2023-05-02T17:16:14;1.10;;;0.85;;
61505;SDS011;47366;51.916;4.574;2023-05-02T17:18:42;2.03;;;0.85;;
61505;SDS011;47366;51.916;4.574;2023-05-02T17:21:07;2.20;;;0.85;;
61505;SDS011;47366;51.916;4.574;2023-05-02T17:23:33;0.75;;;0.55;;
61505;SDS011;47366;51.916;4.574;2023-05-02T17:25:58;2.08;;;0.73;;
61505;SDS011;47366;51.916;4.574;2023-05-02T17:28:23;1.05;;;0.70;;
61505;SDS011;47366;51.916;4.574;2023-05-02T17:30:49;0.93;;;0.57;;
61505;SDS011;47366;51.916;4.574;2023-05-02T17:33:18;3.13;;;0.82;;
61505;SDS011;47366;51.916;4.574;2023-05-02T17:35:45;1.52;;;0.77;;
61505;SDS011;47366;51.916;4.574;2023-05-02T17:38:10;0.90;;;0.50;;
61505;SDS011;47366;51.916;4.574;2023-05-02T17:40:36;0.90;;;0.45;;
61505;SDS011;47366;51.916;4.574;2023-05-02T17:43:01;1.50;;;0.73;;
61505;SDS011;47366;51.916;4.574;2023-05-02T17:45:26;0.75;;;0.28;;
61505;SDS011;47366;51.916;4.574;2023-05-02T17:47:53;4.75;;;0.70;;
61505;SDS011;47366;51.916;4.574;2023-05-02T17:50:18;1.80;;;0.80;;
61505;SDS011;47366;51.916;4.574;2023-05-02T17:52:43;1.52;;;0.55;;
61505;SDS011;47366;51.916;4.574;2023-05-02T17:55:09;2.20;;;0.70;;
61505;SDS011;47366;51.916;4.574;2023-05-02T17:57:34;1.95;;;0.93;;
61505;SDS011;47366;51.916;4.574;2023-05-02T18:00:00;0.98;;;0.60;;
61505;SDS011;47366;51.916;4.574;2023-05-02T18:02:28;1.98;;;0.73;;
61505;SDS011;47366;51.916;4.574;2023-05-02T18:04:53;2.28;;;0.73;;
61505;SDS011;47366;51.916;4.574;2023-05-02T18:07:18;1.27;;;0.80;;
61505;SDS011;47366;51.916;4.574;2023-05-02T18:09:50;0.50;;;0.50;;
61505;SDS011;47366;51.916;4.574;2023-05-02T18:12:17;0.80;;;0.50;;
61505;SDS011;47366;51.916;4.574;2023-05-02T18:14:42;0.68;;;0.55;;
61505;SDS011;47366;51.916;4.574;2023-05-02T18:17:08;0.88;;;0.50;;
61505;SDS011;47366;51.916;4.574;2023-05-02T18:19:33;0.93;;;0.70;;
61505;SDS011;47366;51.916;4.574;2023-05-02T18:21:58;0.93;;;0.45;;
61505;SDS011;47366;51.916;4.574;2023-05-02T18:24:24;1.40;;;0.63;;
61505;SDS011;47366;51.916;4.574;2023-05-02T18:26:49;1.80;;;0.60;;
61505;SDS011;47366;51.916;4.574;2023-05-02T18:29:15;0.77;;;0.55;;
61505;SDS011;47366;51.916;4.574;2023-05-02T18:31:40;0.20;;;0.20;;
61505;SDS011;47366;51.916;4.574;2023-05-02T18:34:06;3.72;;;0.70;;
61505;SDS011;47366;51.916;4.574;2023-05-02T18:36:31;3.28;;;0.93;;
61505;SDS011;47366;51.916;4.574;2023-05-02T18:38:57;2.08;;;0.88;;
61505;SDS011;47366;51.916;4.574;2023-05-02T18:41:24;2.92;;;0.70;;
61505;SDS011;47366;51.916;4.574;2023-05-02T18:43:49;2.65;;;0.65;;
61505;SDS011;47366;51.916;4.574;2023-05-02T18:46:15;0.45;;;0.45;;
61505;SDS011;47366;51.916;4.574;2023-05-02T18:48:40;1.13;;;0.50;;
61505;SDS011;47366;51.916;4.574;2023-05-02T18:51:06;4.85;;;0.80;;
61505;SDS011;47366;51.916;4.574;2023-05-02T18:53:32;2.35;;;0.40;;
61505;SDS011;47366;51.916;4.574;2023-05-02T18:55:57;1.48;;;0.55;;
61505;SDS011;47366;51.916;4.574;2023-05-02T18:58:23;0.65;;;0.45;;
61505;SDS011;47366;51.916;4.574;2023-05-02T19:00:48;1.08;;;0.30;;
61505;SDS011;47366;51.916;4.574;2023-05-02T19:03:14;2.83;;;0.50;;
61505;SDS011;47366;51.916;4.574;2023-05-02T19:05:40;1.67;;;0.68;;
61505;SDS011;47366;51.916;4.574;2023-05-02T19:08:06;1.85;;;0.85;;
61505;SDS011;47366;51.916;4.574;2023-05-02T19:10:32;1.00;;;0.60;;
61505;SDS011;47366;51.916;4.574;2023-05-02T19:12:58;2.38;;;1.50;;
61505;SDS011;47366;51.916;4.574;2023-05-02T19:15:24;2.83;;;1.25;;
61505;SDS011;47366;51.916;4.574;2023-05-02T19:17:51;1.92;;;0.73;;
61505;SDS011;47366;51.916;4.574;2023-05-02T19:20:18;2.47;;;0.65;;
61505;SDS011;47366;51.916;4.574;2023-05-02T19:22:43;0.85;;;0.65;;
61505;SDS011;47366;51.916;4.574;2023-05-02T19:25:11;3.58;;;0.63;;
61505;SDS011;47366;51.916;4.574;2023-05-02T19:27:37;1.52;;;0.77;;
61505;SDS011;47366;51.916;4.574;2023-05-02T19:30:03;2.65;;;1.60;;
61505;SDS011;47366;51.916;4.574;2023-05-02T19:32:33;4.15;;;2.42;;
61505;SDS011;47366;51.916;4.574;2023-05-02T19:34:59;4.82;;;1.65;;
61505;SDS011;47366;51.916;4.574;2023-05-02T19:37:25;2.45;;;1.20;;
61505;SDS011;47366;51.916;4.574;2023-05-02T19:39:50;2.97;;;1.50;;
61505;SDS011;47366;51.916;4.574;2023-05-02T19:42:16;2.88;;;1.17;;
61505;SDS011;47366;51.916;4.574;2023-05-02T19:44:41;1.63;;;1.08;;
61505;SDS011;47366;51.916;4.574;2023-05-02T19:47:06;1.50;;;0.80;;
61505;SDS011;47366;51.916;4.574;2023-05-02T19:49:32;6.70;;;1.17;;
61505;SDS011;47366;51.916;4.574;2023-05-02T19:51:58;0.95;;;0.60;;
61505;SDS011;47366;51.916;4.574;2023-05-02T19:54:26;2.70;;;0.82;;
61505;SDS011;47366;51.916;4.574;2023-05-02T19:56:51;2.65;;;0.60;;
61505;SDS011;47366;51.916;4.574;2023-05-02T19:59:16;1.27;;;0.77;;
61505;SDS011;47366;51.916;4.574;2023-05-02T20:01:42;0.52;;;0.22;;
61505;SDS011;47366;51.916;4.574;2023-05-02T20:04:07;0.57;;;0.43;;
61505;SDS011;47366;51.916;4.574;2023-05-02T20:06:33;3.25;;;0.68;;
61505;SDS011;47366;51.916;4.574;2023-05-02T20:08:58;1.15;;;0.50;;
61505;SDS011;47366;51.916;4.574;2023-05-02T20:11:23;1.45;;;0.50;;
61505;SDS011;47366;51.916;4.574;2023-05-02T20:13:49;3.55;;;0.60;;
61505;SDS011;47366;51.916;4.574;2023-05-02T20:16:15;0.57;;;0.45;;
61505;SDS011;47366;51.916;4.574;2023-05-02T20:18:40;1.15;;;0.35;;
61505;SDS011;47366;51.916;4.574;2023-05-02T20:21:06;1.40;;;0.50;;
61505;SDS011;47366;51.916;4.574;2023-05-02T20:23:31;0.63;;;0.35;;
61505;SDS011;47366;51.916;4.574;2023-05-02T20:25:56;1.73;;;0.75;;
61505;SDS011;47366;51.916;4.574;2023-05-02T20:28:22;2.83;;;0.38;;
61505;SDS011;47366;51.916;4.574;2023-05-02T20:30:48;0.40;;;0.32;;
61505;SDS011;47366;51.916;4.574;2023-05-02T20:33:14;1.13;;;0.47;;
61505;SDS011;47366;51.916;4.574;2023-05-02T20:35:40;0.35;;;0.35;;
61505;SDS011;47366;51.916;4.574;2023-05-02T20:38:05;0.45;;;0.40;;
61505;SDS011;47366;51.916;4.574;2023-05-02T20:40:30;0.68;;;0.52;;
61505;SDS011;47366;51.916;4.574;2023-05-02T20:42:56;2.47;;;0.55;;
61505;SDS011;47366;51.916;4.574;2023-05-02T20:45:25;1.05;;;0.63;;